sensor_id;sensor_type;location;lat;lon;timestamp;pressure;altitude;pressure_sealevel;temperature;humidity
17054;BME280;8643;48.824;11.422;2022-09-19T00:01:58;96676.38;;;5.79;100.00
17054;BME280;8643;48.824;11.422;2022-09-19T00:04:29;96679.78;;;5.85;100.00
17054;BME280;8643;48.824;11.422;2022-09-19T00:06:59;96671.31;;;5.86;100.00
17054;BME280;8643;48.824;11.422;2022-09-19T00:09:31;96661.41;;;5.82;100.00
17054;BME280;8643;48.824;11.422;2022-09-19T00:12:01;96660.88;;;5.80;100.00
17054;BME280;8643;48.824;11.422;2022-09-19T00:14:34;96661.81;;;5.75;100.00
17054;BME280;8643;48.824;11.422;2022-09-19T00:17:06;96660.88;;;5.80;100.00
17054;BME280;8643;48.824;11.422;2022-09-19T00:19:36;96662.31;;;5.77;100.00
17054;BME280;8643;48.824;11.422;2022-09-19T00:22:05;96669.56;;;5.82;100.00
17054;BME280;8643;48.824;11.422;2022-09-19T00:24:34;96671.53;;;5.90;100.00
17054;BME280;8643;48.824;11.422;2022-09-19T00:27:17;96676.03;;;5.95;100.00
17054;BME280;8643;48.824;11.422;2022-09-19T00:29:46;96677.06;;;5.99;100.00
17054;BME280;8643;48.824;11.422;2022-09-19T00:32:16;96672.81;;;5.93;100.00
17054;BME280;8643;48.824;11.422;2022-09-19T00:34:47;96675.84;;;5.91;100.00
17054;BME280;8643;48.824;11.422;2022-09-19T00:37:19;96667.94;;;5.81;100.00
17054;BME280;8643;48.824;11.422;2022-09-19T00:39:48;96680.59;;;5.85;100.00
17054;BME280;8643;48.824;11.422;2022-09-19T00:42:22;96671.22;;;5.92;100.00
17054;BME280;8643;48.824;11.422;2022-09-19T00:45:00;96682.41;;;5.90;100.00
17054;BME280;8643;48.824;11.422;2022-09-19T00:47:36;96680.13;;;5.83;100.00
17054;BME280;8643;48.824;11.422;2022-09-19T00:50:20;96674.59;;;5.75;100.00
17054;BME280;8643;48.824;11.422;2022-09-19T00:52:53;96675.56;;;5.56;100.00
17054;BME280;8643;48.824;11.422;2022-09-19T00:55:23;96677.38;;;5.47;100.00
17054;BME280;8643;48.824;11.422;2022-09-19T00:58:16;96671.06;;;5.38;100.00
17054;BME280;8643;48.824;11.422;2022-09-19T01:00:47;96675.00;;;5.31;100.00
17054;BME280;8643;48.824;11.422;2022-09-19T01:03:18;96681.22;;;5.32;100.00
17054;BME280;8643;48.824;11.422;2022-09-19T01:05:57;96687.56;;;5.27;100.00
17054;BME280;8643;48.824;11.422;2022-09-19T01:08:45;96686.78;;;5.27;100.00
17054;BME280;8643;48.824;11.422;2022-09-19T01:11:37;96697.94;;;5.25;100.00
17054;BME280;8643;48.824;11.422;2022-09-19T01:14:22;96698.84;;;5.21;100.00
17054;BME280;8643;48.824;11.422;2022-09-19T01:17:05;96703.56;;;5.15;100.00
17054;BME280;8643;48.824;11.422;2022-09-19T01:23:05;96703.56;;;5.15;100.00
17054;BME280;8643;48.824;11.422;2022-09-19T01:25:49;96701.75;;;5.10;100.00
17054;BME280;8643;48.824;11.422;2022-09-19T01:28:25;96704.28;;;5.07;100.00
17054;BME280;8643;48.824;11.422;2022-09-19T01:31:03;96713.63;;;5.01;100.00
17054;BME280;8643;48.824;11.422;2022-09-19T01:33:53;96706.28;;;5.01;100.00
17054;BME280;8643;48.824;11.422;2022-09-19T01:36:35;96715.03;;;4.98;100.00
17054;BME280;8643;48.824;11.422;2022-09-19T01:39:08;96706.19;;;4.92;100.00
17054;BME280;8643;48.824;11.422;2022-09-19T01:41:47;96719.16;;;4.95;100.00
17054;BME280;8643;48.824;11.422;2022-09-19T01:44:20;96715.72;;;4.90;100.00
17054;BME280;8643;48.824;11.422;2022-09-19T01:47:06;96722.25;;;5.03;100.00
17054;BME280;8643;48.824;11.422;2022-09-19T01:49:48;96718.63;;;4.93;100.00
17054;BME280;8643;48.824;11.422;2022-09-19T01:52:42;96718.53;;;4.85;100.00
17054;BME280;8643;48.824;11.422;2022-09-19T01:55:29;96723.84;;;4.76;100.00
17054;BME280;8643;48.824;11.422;2022-09-19T01:58:07;96722.03;;;4.71;100.00
17054;BME280;8643;48.824;11.422;2022-09-19T02:00:46;96724.16;;;4.74;100.00
17054;BME280;8643;48.824;11.422;2022-09-19T02:03:26;96729.78;;;4.78;100.00
17054;BME280;8643;48.824;11.422;2022-09-19T02:06:08;96734.72;;;4.90;100.00
17054;BME280;8643;48.824;11.422;2022-09-19T02:08:47;96721.03;;;4.95;100.00
17054;BME280;8643;48.824;11.422;2022-09-19T02:11:32;96725.69;;;4.94;100.00
17054;BME280;8643;48.824;11.422;2022-09-19T02:14:08;96721.88;;;4.95;100.00
17054;BME280;8643;48.824;11.422;2022-09-19T02:16:53;96732.00;;;4.90;100.00
17054;BME280;8643;48.824;11.422;2022-09-19T02:19:37;96734.59;;;4.95;100.00
17054;BME280;8643;48.824;11.422;2022-09-19T02:22:15;96735.13;;;4.97;100.00
17054;BME280;8643;48.824;11.422;2022-09-19T02:24:49;96732.72;;;4.95;100.00
17054;BME280;8643;48.824;11.422;2022-09-19T02:27:31;96732.81;;;5.04;100.00
17054;BME280;8643;48.824;11.422;2022-09-19T02:30:09;96746.28;;;5.09;100.00
17054;BME280;8643;48.824;11.422;2022-09-19T02:32:42;96738.56;;;5.17;100.00
17054;BME280;8643;48.824;11.422;2022-09-19T02:35:21;96745.28;;;5.19;100.00
17054;BME280;8643;48.824;11.422;2022-09-19T02:38:09;96744.69;;;5.22;100.00
17054;BME280;8643;48.824;11.422;2022-09-19T02:41:10;96745.19;;;5.24;100.00
17054;BME280;8643;48.824;11.422;2022-09-19T02:43:47;96741.06;;;5.27;100.00
17054;BME280;8643;48.824;11.422;2022-09-19T02:46:26;96744.69;;;5.22;100.00
17054;BME280;8643;48.824;11.422;2022-09-19T02:49:09;96743.00;;;5.26;100.00
17054;BME280;8643;48.824;11.422;2022-09-19T02:51:50;96745.06;;;5.29;100.00
17054;BME280;8643;48.824;11.422;2022-09-19T02:54:25;96734.44;;;5.33;100.00
17054;BME280;8643;48.824;11.422;2022-09-19T02:57:03;96729.19;;;5.37;100.00
17054;BME280;8643;48.824;11.422;2022-09-19T02:59:37;96736.13;;;5.43;100.00
17054;BME280;8643;48.824;11.422;2022-09-19T03:02:14;96725.16;;;5.48;100.00
17054;BME280;8643;48.824;11.422;2022-09-19T03:04:53;96730.00;;;5.51;100.00
17054;BME280;8643;48.824;11.422;2022-09-19T03:07:26;96738.53;;;5.58;100.00
17054;BME280;8643;48.824;11.422;2022-09-19T03:10:07;96733.38;;;5.57;100.00
17054;BME280;8643;48.824;11.422;2022-09-19T03:13:00;96732.00;;;5.59;100.00
17054;BME280;8643;48.824;11.422;2022-09-19T03:15:33;96740.63;;;5.61;100.00
17054;BME280;8643;48.824;11.422;2022-09-19T03:18:07;96741.13;;;5.63;100.00
17054;BME280;8643;48.824;11.422;2022-09-19T03:20:46;96740.03;;;5.64;100.00
17054;BME280;8643;48.824;11.422;2022-09-19T03:23:19;96749.75;;;5.65;100.00
17054;BME280;8643;48.824;11.422;2022-09-19T03:25:51;96751.28;;;5.72;100.00
17054;BME280;8643;48.824;11.422;2022-09-19T03:28:20;96755.78;;;5.76;100.00
17054;BME280;8643;48.824;11.422;2022-09-19T03:30:53;96753.25;;;5.80;100.00
17054;BME280;8643;48.824;11.422;2022-09-19T03:33:23;96761.72;;;5.78;100.00
17054;BME280;8643;48.824;11.422;2022-09-19T03:35:53;96763.53;;;5.83;100.00
17054;BME280;8643;48.824;11.422;2022-09-19T03:38:23;96749.22;;;5.91;100.00
17054;BME280;8643;48.824;11.422;2022-09-19T03:40:52;96743.78;;;5.91;100.00
17054;BME280;8643;48.824;11.422;2022-09-19T03:43:20;96742.19;;;5.90;100.00
17054;BME280;8643;48.824;11.422;2022-09-19T03:45:49;96748.91;;;5.93;100.00
17054;BME280;8643;48.824;11.422;2022-09-19T03:48:18;96769.78;;;5.97;100.00
17054;BME280;8643;48.824;11.422;2022-09-19T03:50:49;96772.69;;;6.01;100.00
17054;BME280;8643;48.824;11.422;2022-09-19T03:53:19;96778.72;;;5.98;100.00
17054;BME280;8643;48.824;11.422;2022-09-19T03:55:47;96774.78;;;6.04;100.00
17054;BME280;8643;48.824;11.422;2022-09-19T03:58:17;96776.78;;;6.12;100.00
17054;BME280;8643;48.824;11.422;2022-09-19T04:00:47;96778.00;;;6.06;100.00
17054;BME280;8643;48.824;11.422;2022-09-19T04:03:16;96778.81;;;6.07;100.00
17054;BME280;8643;48.824;11.422;2022-09-19T04:05:45;96778.94;;;6.01;100.00
17054;BME280;8643;48.824;11.422;2022-09-19T04:08:14;96778.59;;;6.03;100.00
17054;BME280;8643;48.824;11.422;2022-09-19T04:10:44;96785.66;;;6.04;100.00
17054;BME280;8643;48.824;11.422;2022-09-19T04:13:13;96793.50;;;6.05;100.00
17054;BME280;8643;48.824;11.422;2022-09-19T04:15:44;96784.03;;;6.03;100.00
17054;BME280;8643;48.824;11.422;2022-09-19T04:18:14;96788.88;;;6.06;100.00
17054;BME280;8643;48.824;11.422;2022-09-19T04:20:42;96792.72;;;6.05;100.00
17054;BME280;8643;48.824;11.422;2022-09-19T04:23:24;96798.16;;;6.05;100.00
17054;BME280;8643;48.824;11.422;2022-09-19T04:26:04;96790.50;;;6.07;100.00
17054;BME280;8643;48.824;11.422;2022-09-19T04:28:34;96797.53;;;6.08;100.00
17054;BME280;8643;48.824;11.422;2022-09-19T04:31:07;96802.16;;;6.08;100.00
17054;BME280;8643;48.824;11.422;2022-09-19T04:33:37;96806.31;;;6.05;100.00
17054;BME280;8643;48.824;11.422;2022-09-19T04:36:06;96811.44;;;6.07;100.00
17054;BME280;8643;48.824;11.422;2022-09-19T04:38:36;96810.84;;;6.10;100.00
17054;BME280;8643;48.824;11.422;2022-09-19T04:41:15;96819.16;;;6.13;100.00
17054;BME280;8643;48.824;11.422;2022-09-19T04:43:44;96822.69;;;6.14;100.00
17054;BME280;8643;48.824;11.422;2022-09-19T04:46:27;96820.28;;;6.12;100.00
17054;BME280;8643;48.824;11.422;2022-09-19T04:49:01;96826.31;;;6.09;100.00
17054;BME280;8643;48.824;11.422;2022-09-19T04:51:34;96829.84;;;6.10;100.00
17054;BME280;8643;48.824;11.422;2022-09-19T04:54:03;96826.91;;;6.06;100.00
17054;BME280;8643;48.824;11.422;2022-09-19T04:56:34;96830.16;;;6.08;100.00
17054;BME280;8643;48.824;11.422;2022-09-19T04:59:05;96842.31;;;6.11;100.00
17054;BME280;8643;48.824;11.422;2022-09-19T05:01:36;96836.88;;;6.11;100.00
17054;BME280;8643;48.824;11.422;2022-09-19T05:04:05;96847.47;;;6.12;100.00
17054;BME280;8643;48.824;11.422;2022-09-19T05:06:34;96846.97;;;6.10;100.00
17054;BME280;8643;48.824;11.422;2022-09-19T05:09:05;96841.22;;;6.12;100.00
17054;BME280;8643;48.824;11.422;2022-09-19T05:11:43;96852.28;;;6.15;100.00
17054;BME280;8643;48.824;11.422;2022-09-19T05:14:13;96851.69;;;6.18;100.00
17054;BME280;8643;48.824;11.422;2022-09-19T05:16:50;96862.56;;;6.18;100.00
17054;BME280;8643;48.824;11.422;2022-09-19T05:19:18;96854.91;;;6.20;100.00
17054;BME280;8643;48.824;11.422;2022-09-19T05:21:51;96857.91;;;6.19;100.00
17054;BME280;8643;48.824;11.422;2022-09-19T05:24:19;96862.94;;;6.26;100.00
17054;BME280;8643;48.824;11.422;2022-09-19T05:26:49;96862.63;;;6.27;100.00
17054;BME280;8643;48.824;11.422;2022-09-19T05:29:17;96872.91;;;6.30;100.00
17054;BME280;8643;48.824;11.422;2022-09-19T05:31:59;96870.59;;;6.37;100.00
17054;BME280;8643;48.824;11.422;2022-09-19T05:34:53;96878.63;;;6.42;100.00
17054;BME280;8643;48.824;11.422;2022-09-19T05:37:43;96883.06;;;6.38;100.00
17054;BME280;8643;48.824;11.422;2022-09-19T05:40:31;96886.28;;;6.40;100.00
17054;BME280;8643;48.824;11.422;2022-09-19T05:43:21;96887.16;;;6.50;100.00
17054;BME280;8643;48.824;11.422;2022-09-19T05:45:50;96890.19;;;6.48;100.00
17054;BME280;8643;48.824;11.422;2022-09-19T05:48:19;96892.19;;;6.56;100.00
17054;BME280;8643;48.824;11.422;2022-09-19T05:50:50;96903.97;;;6.52;100.00
17054;BME280;8643;48.824;11.422;2022-09-19T05:53:20;96894.72;;;6.53;100.00
17054;BME280;8643;48.824;11.422;2022-09-19T05:56:29;96908.00;;;6.54;100.00
17054;BME280;8643;48.824;11.422;2022-09-19T05:59:02;96904.38;;;6.59;100.00
17054;BME280;8643;48.824;11.422;2022-09-19T06:01:32;96909.31;;;6.57;100.00
17054;BME280;8643;48.824;11.422;2022-09-19T06:04:01;96916.66;;;6.56;100.00
17054;BME280;8643;48.824;11.422;2022-09-19T06:06:35;96912.72;;;6.63;100.00
17054;BME280;8643;48.824;11.422;2022-09-19T06:09:05;96916.75;;;6.65;100.00
17054;BME280;8643;48.824;11.422;2022-09-19T06:11:39;96925.41;;;6.67;100.00
17054;BME280;8643;48.824;11.422;2022-09-19T06:14:09;96929.03;;;6.76;100.00
17054;BME280;8643;48.824;11.422;2022-09-19T06:16:49;96938.16;;;6.81;100.00
17054;BME280;8643;48.824;11.422;2022-09-19T06:19:46;96948.25;;;6.80;100.00
17054;BME280;8643;48.824;11.422;2022-09-19T06:22:23;96939.47;;;6.83;100.00
17054;BME280;8643;48.824;11.422;2022-09-19T06:24:54;96945.41;;;6.85;100.00
17054;BME280;8643;48.824;11.422;2022-09-19T06:27:23;96948.31;;;6.89;100.00
17054;BME280;8643;48.824;11.422;2022-09-19T06:29:54;96951.84;;;6.89;100.00
17054;BME280;8643;48.824;11.422;2022-09-19T06:32:39;96956.66;;;6.92;100.00
17054;BME280;8643;48.824;11.422;2022-09-19T06:35:14;96960.09;;;6.98;100.00
17054;BME280;8643;48.824;11.422;2022-09-19T06:37:44;96958.66;;;7.01;100.00
17054;BME280;8643;48.824;11.422;2022-09-19T06:40:16;96955.75;;;6.97;100.00
17054;BME280;8643;48.824;11.422;2022-09-19T06:43:26;96959.66;;;7.05;100.00
17054;BME280;8643;48.824;11.422;2022-09-19T06:46:31;96968.94;;;7.04;100.00
17054;BME280;8643;48.824;11.422;2022-09-19T06:49:08;96976.63;;;7.02;100.00
17054;BME280;8643;48.824;11.422;2022-09-19T06:51:51;96975.22;;;7.04;100.00
17054;BME280;8643;48.824;11.422;2022-09-19T06:54:22;96977.94;;;7.04;100.00
17054;BME280;8643;48.824;11.422;2022-09-19T06:56:51;96971.75;;;7.12;100.00
17054;BME280;8643;48.824;11.422;2022-09-19T06:59:19;96981.03;;;7.11;100.00
17054;BME280;8643;48.824;11.422;2022-09-19T07:01:50;96990.81;;;7.12;100.00
17054;BME280;8643;48.824;11.422;2022-09-19T07:04:20;96994.50;;;7.16;100.00
17054;BME280;8643;48.824;11.422;2022-09-19T07:07:04;97006.03;;;7.13;100.00
17054;BME280;8643;48.824;11.422;2022-09-19T07:09:36;96986.34;;;7.16;100.00
17054;BME280;8643;48.824;11.422;2022-09-19T07:12:08;97000.34;;;7.24;100.00
17054;BME280;8643;48.824;11.422;2022-09-19T07:14:36;96998.00;;;7.31;100.00
17054;BME280;8643;48.824;11.422;2022-09-19T07:17:07;97006.66;;;7.33;100.00
17054;BME280;8643;48.824;11.422;2022-09-19T07:19:35;97009.16;;;7.43;100.00
17054;BME280;8643;48.824;11.422;2022-09-19T07:22:22;97005.28;;;7.44;100.00
17054;BME280;8643;48.824;11.422;2022-09-19T07:25:14;97019.31;;;7.51;100.00
17054;BME280;8643;48.824;11.422;2022-09-19T07:27:57;97020.16;;;7.61;100.00
17054;BME280;8643;48.824;11.422;2022-09-19T07:30:32;97022.13;;;7.69;100.00
17054;BME280;8643;48.824;11.422;2022-09-19T07:33:06;97028.28;;;7.75;100.00
17054;BME280;8643;48.824;11.422;2022-09-19T07:35:37;97030.81;;;7.71;100.00
17054;BME280;8643;48.824;11.422;2022-09-19T07:38:12;97038.63;;;7.64;100.00
17054;BME280;8643;48.824;11.422;2022-09-19T07:41:10;97043.84;;;7.74;100.00
17054;BME280;8643;48.824;11.422;2022-09-19T07:43:57;97044.53;;;7.88;100.00
17054;BME280;8643;48.824;11.422;2022-09-19T07:46:51;97046.31;;;8.16;100.00
17054;BME280;8643;48.824;11.422;2022-09-19T07:49:54;97050.69;;;8.25;100.00
17054;BME280;8643;48.824;11.422;2022-09-19T07:52:36;97059.19;;;8.24;100.00
17054;BME280;8643;48.824;11.422;2022-09-19T07:55:09;97063.28;;;8.13;100.00
17054;BME280;8643;48.824;11.422;2022-09-19T07:57:48;97074.03;;;8.09;100.00
17054;BME280;8643;48.824;11.422;2022-09-19T08:00:17;97088.66;;;8.13;100.00
17054;BME280;8643;48.824;11.422;2022-09-19T08:02:56;97087.00;;;8.03;100.00
17054;BME280;8643;48.824;11.422;2022-09-19T08:05:32;97091.72;;;7.89;100.00
17054;BME280;8643;48.824;11.422;2022-09-19T08:08:02;97094.81;;;7.74;100.00
17054;BME280;8643;48.824;11.422;2022-09-19T08:10:31;97093.94;;;7.64;100.00
17054;BME280;8643;48.824;11.422;2022-09-19T08:13:01;97098.34;;;7.74;100.00
17054;BME280;8643;48.824;11.422;2022-09-19T08:15:31;97104.84;;;7.87;100.00
17054;BME280;8643;48.824;11.422;2022-09-19T08:18:04;97106.41;;;7.79;100.00
17054;BME280;8643;48.824;11.422;2022-09-19T08:20:35;97113.44;;;7.80;100.00
17054;BME280;8643;48.824;11.422;2022-09-19T08:23:07;97112.41;;;7.90;100.00
17054;BME280;8643;48.824;11.422;2022-09-19T08:25:39;97114.69;;;7.97;100.00
17054;BME280;8643;48.824;11.422;2022-09-19T08:28:10;97121.50;;;8.08;100.00
17054;BME280;8643;48.824;11.422;2022-09-19T08:30:39;97125.97;;;8.26;100.00
17054;BME280;8643;48.824;11.422;2022-09-19T08:33:10;97127.34;;;8.15;100.00
17054;BME280;8643;48.824;11.422;2022-09-19T08:35:42;97132.47;;;8.17;100.00
17054;BME280;8643;48.824;11.422;2022-09-19T08:38:21;97128.81;;;8.21;100.00
17054;BME280;8643;48.824;11.422;2022-09-19T08:44:10;97138.03;;;8.34;100.00
17054;BME280;8643;48.824;11.422;2022-09-19T08:46:50;97134.53;;;8.42;100.00
17054;BME280;8643;48.824;11.422;2022-09-19T08:49:28;97148.13;;;8.56;100.00
17054;BME280;8643;48.824;11.422;2022-09-19T08:52:05;97147.69;;;8.63;100.00
17054;BME280;8643;48.824;11.422;2022-09-19T08:54:38;97158.13;;;8.61;100.00
17054;BME280;8643;48.824;11.422;2022-09-19T08:57:19;97158.53;;;8.77;100.00
17054;BME280;8643;48.824;11.422;2022-09-19T09:00:03;97154.47;;;8.66;100.00
17054;BME280;8643;48.824;11.422;2022-09-19T09:02:42;97160.09;;;8.69;100.00
17054;BME280;8643;48.824;11.422;2022-09-19T09:05:45;97161.47;;;8.58;100.00
17054;BME280;8643;48.824;11.422;2022-09-19T09:08:36;97163.66;;;8.47;100.00
17054;BME280;8643;48.824;11.422;2022-09-19T09:11:20;97173.06;;;8.63;100.00
17054;BME280;8643;48.824;11.422;2022-09-19T09:14:05;97171.66;;;8.75;100.00
17054;BME280;8643;48.824;11.422;2022-09-19T09:16:52;97173.91;;;8.73;100.00
17054;BME280;8643;48.824;11.422;2022-09-19T09:19:53;97169.88;;;9.02;100.00
17054;BME280;8643;48.824;11.422;2022-09-19T09:22:28;97171.53;;;9.20;100.00
17054;BME280;8643;48.824;11.422;2022-09-19T09:25:22;97178.59;;;9.21;100.00
17054;BME280;8643;48.824;11.422;2022-09-19T09:28:04;97179.16;;;9.41;100.00
17054;BME280;8643;48.824;11.422;2022-09-19T09:30:51;97184.66;;;9.67;100.00
17054;BME280;8643;48.824;11.422;2022-09-19T09:33:27;97187.22;;;9.63;100.00
17054;BME280;8643;48.824;11.422;2022-09-19T09:36:02;97181.06;;;9.40;100.00
17054;BME280;8643;48.824;11.422;2022-09-19T09:38:37;97182.56;;;9.72;100.00
17054;BME280;8643;48.824;11.422;2022-09-19T09:41:28;97178.69;;;10.08;100.00
17054;BME280;8643;48.824;11.422;2022-09-19T09:44:47;97181.81;;;10.33;100.00
17054;BME280;8643;48.824;11.422;2022-09-19T09:47:41;97187.28;;;10.33;100.00
17054;BME280;8643;48.824;11.422;2022-09-19T09:50:45;97194.31;;;10.25;100.00
17054;BME280;8643;48.824;11.422;2022-09-19T09:53:30;97186.75;;;9.79;100.00
17054;BME280;8643;48.824;11.422;2022-09-19T09:56:12;97195.28;;;9.68;100.00
17054;BME280;8643;48.824;11.422;2022-09-19T09:59:20;97205.72;;;9.75;100.00
17054;BME280;8643;48.824;11.422;2022-09-19T10:02:19;97199.44;;;9.57;100.00
17054;BME280;8643;48.824;11.422;2022-09-19T10:05:19;97201.38;;;9.74;100.00
17054;BME280;8643;48.824;11.422;2022-09-19T10:08:02;97202.69;;;10.20;100.00
17054;BME280;8643;48.824;11.422;2022-09-19T10:10:35;97198.84;;;10.13;100.00
17054;BME280;8643;48.824;11.422;2022-09-19T10:13:18;97204.13;;;10.18;100.00
17054;BME280;8643;48.824;11.422;2022-09-19T10:15:58;97203.31;;;10.08;100.00
17054;BME280;8643;48.824;11.422;2022-09-19T10:18:42;97201.09;;;10.11;100.00
17054;BME280;8643;48.824;11.422;2022-09-19T10:21:16;97208.81;;;10.08;100.00
17054;BME280;8643;48.824;11.422;2022-09-19T10:23:49;97212.38;;;10.09;100.00
17054;BME280;8643;48.824;11.422;2022-09-19T10:26:29;97216.06;;;10.22;100.00
17054;BME280;8643;48.824;11.422;2022-09-19T10:29:12;97215.06;;;10.00;100.00
17054;BME280;8643;48.824;11.422;2022-09-19T10:32:07;97218.78;;;10.13;100.00
17054;BME280;8643;48.824;11.422;2022-09-19T10:35:19;97225.72;;;10.19;100.00
17054;BME280;8643;48.824;11.422;2022-09-19T10:37:59;97218.13;;;10.25;100.00
17054;BME280;8643;48.824;11.422;2022-09-19T10:40:30;97223.94;;;10.15;100.00
17054;BME280;8643;48.824;11.422;2022-09-19T10:43:01;97222.47;;;10.08;100.00
17054;BME280;8643;48.824;11.422;2022-09-19T10:45:34;97233.09;;;10.10;100.00
17054;BME280;8643;48.824;11.422;2022-09-19T10:48:17;97234.25;;;10.09;100.00
17054;BME280;8643;48.824;11.422;2022-09-19T10:50:48;97229.75;;;10.22;100.00
17054;BME280;8643;48.824;11.422;2022-09-19T10:53:26;97236.06;;;10.40;100.00
17054;BME280;8643;48.824;11.422;2022-09-19T10:56:02;97235.84;;;10.27;100.00
17054;BME280;8643;48.824;11.422;2022-09-19T10:58:36;97235.53;;;10.38;100.00
17054;BME280;8643;48.824;11.422;2022-09-19T11:01:27;97231.34;;;10.32;100.00
17054;BME280;8643;48.824;11.422;2022-09-19T11:04:04;97231.84;;;10.34;100.00
17054;BME280;8643;48.824;11.422;2022-09-19T11:06:33;97224.78;;;10.41;100.00
17054;BME280;8643;48.824;11.422;2022-09-19T11:09:24;97228.63;;;10.32;100.00
17054;BME280;8643;48.824;11.422;2022-09-19T11:12:03;97226.84;;;10.36;100.00
17054;BME280;8643;48.824;11.422;2022-09-19T11:14:39;97232.81;;;10.38;100.00
17054;BME280;8643;48.824;11.422;2022-09-19T11:17:55;97223.63;;;10.51;100.00
17054;BME280;8643;48.824;11.422;2022-09-19T11:20:48;97229.53;;;10.79;100.00
17054;BME280;8643;48.824;11.422;2022-09-19T11:23:51;97224.69;;;10.85;100.00
17054;BME280;8643;48.824;11.422;2022-09-19T11:26:41;97227.91;;;10.87;100.00
17054;BME280;8643;48.824;11.422;2022-09-19T11:29:37;97225.97;;;10.88;100.00
17054;BME280;8643;48.824;11.422;2022-09-19T11:32:18;97219.84;;;10.91;100.00
17054;BME280;8643;48.824;11.422;2022-09-19T11:35:24;97206.16;;;10.82;100.00
17054;BME280;8643;48.824;11.422;2022-09-19T11:38:13;97204.88;;;10.79;100.00
17054;BME280;8643;48.824;11.422;2022-09-19T11:41:39;97208.19;;;11.03;100.00
17054;BME280;8643;48.824;11.422;2022-09-19T11:48:09;97221.78;;;11.29;100.00
17054;BME280;8643;48.824;11.422;2022-09-19T11:50:59;97212.44;;;11.60;100.00
17054;BME280;8643;48.824;11.422;2022-09-19T11:54:21;97215.81;;;12.83;100.00
17054;BME280;8643;48.824;11.422;2022-09-19T11:57:08;97212.25;;;13.41;100.00
17054;BME280;8643;48.824;11.422;2022-09-19T12:00:03;97216.00;;;13.24;96.59
17054;BME280;8643;48.824;11.422;2022-09-19T12:03:20;97215.28;;;12.35;100.00
17054;BME280;8643;48.824;11.422;2022-09-19T12:06:28;97207.47;;;12.46;100.00
17054;BME280;8643;48.824;11.422;2022-09-19T12:09:14;97200.91;;;12.17;100.00
17054;BME280;8643;48.824;11.422;2022-09-19T12:11:51;97207.31;;;12.76;99.90
17054;BME280;8643;48.824;11.422;2022-09-19T12:14:28;97203.31;;;13.68;98.93
17054;BME280;8643;48.824;11.422;2022-09-19T12:17:05;97203.22;;;12.82;96.73
17054;BME280;8643;48.824;11.422;2022-09-19T12:19:43;97192.84;;;12.54;99.17
17054;BME280;8643;48.824;11.422;2022-09-19T12:22:18;97197.28;;;12.46;100.00
17054;BME280;8643;48.824;11.422;2022-09-19T12:24:54;97189.84;;;12.47;100.00
17054;BME280;8643;48.824;11.422;2022-09-19T12:27:40;97187.75;;;12.77;100.00
17054;BME280;8643;48.824;11.422;2022-09-19T12:30:14;97189.66;;;12.31;100.00
17054;BME280;8643;48.824;11.422;2022-09-19T12:32:55;97195.47;;;11.87;100.00
17054;BME280;8643;48.824;11.422;2022-09-19T12:35:35;97190.00;;;11.87;100.00
17054;BME280;8643;48.824;11.422;2022-09-19T12:38:21;97183.53;;;12.80;99.06
17054;BME280;8643;48.824;11.422;2022-09-19T12:41:00;97194.94;;;13.15;95.90
17054;BME280;8643;48.824;11.422;2022-09-19T12:43:43;97171.19;;;12.86;99.28
17054;BME280;8643;48.824;11.422;2022-09-19T12:46:34;97175.00;;;13.18;96.49
17054;BME280;8643;48.824;11.422;2022-09-19T12:49:20;97181.78;;;13.33;94.67
17054;BME280;8643;48.824;11.422;2022-09-19T12:52:07;97168.50;;;12.77;95.84
17054;BME280;8643;48.824;11.422;2022-09-19T12:54:45;97168.28;;;12.82;98.39
17054;BME280;8643;48.824;11.422;2022-09-19T12:57:22;97168.84;;;13.46;94.09
17054;BME280;8643;48.824;11.422;2022-09-19T12:59:53;97172.16;;;12.69;97.04
17054;BME280;8643;48.824;11.422;2022-09-19T13:02:29;97176.34;;;12.54;98.00
17054;BME280;8643;48.824;11.422;2022-09-19T13:05:07;97179.78;;;13.09;96.28
17054;BME280;8643;48.824;11.422;2022-09-19T13:07:45;97180.41;;;13.40;94.05
17054;BME280;8643;48.824;11.422;2022-09-19T13:10:21;97178.19;;;13.70;92.65
17054;BME280;8643;48.824;11.422;2022-09-19T13:12:59;97176.59;;;13.69;95.05
17054;BME280;8643;48.824;11.422;2022-09-19T13:15:35;97171.94;;;13.98;91.50
17054;BME280;8643;48.824;11.422;2022-09-19T13:18:12;97182.44;;;14.48;88.95
17054;BME280;8643;48.824;11.422;2022-09-19T13:20:59;97182.72;;;14.72;91.50
17054;BME280;8643;48.824;11.422;2022-09-19T13:23:56;97184.84;;;14.22;88.18
17054;BME280;8643;48.824;11.422;2022-09-19T13:26:28;97178.19;;;13.08;90.88
17054;BME280;8643;48.824;11.422;2022-09-19T13:29:05;97168.22;;;12.91;92.87
17054;BME280;8643;48.824;11.422;2022-09-19T13:32:00;97171.25;;;13.35;90.62
17054;BME280;8643;48.824;11.422;2022-09-19T13:34:59;97175.94;;;13.35;94.73
17054;BME280;8643;48.824;11.422;2022-09-19T13:40:56;97175.44;;;12.50;95.50
17054;BME280;8643;48.824;11.422;2022-09-19T13:43:47;97162.31;;;12.01;96.62
17054;BME280;8643;48.824;11.422;2022-09-19T13:46:26;97167.47;;;12.03;97.77
17054;BME280;8643;48.824;11.422;2022-09-19T13:49:07;97170.72;;;12.17;99.60
17054;BME280;8643;48.824;11.422;2022-09-19T13:51:44;97167.53;;;12.15;99.46
17054;BME280;8643;48.824;11.422;2022-09-19T13:55:06;97168.34;;;12.49;97.16
17054;BME280;8643;48.824;11.422;2022-09-19T13:57:36;97164.00;;;13.68;93.74
17054;BME280;8643;48.824;11.422;2022-09-19T14:00:10;97159.56;;;13.38;92.83
17054;BME280;8643;48.824;11.422;2022-09-19T14:03:01;97164.09;;;13.10;94.23
17054;BME280;8643;48.824;11.422;2022-09-19T14:05:35;97163.75;;;12.99;93.08
17054;BME280;8643;48.824;11.422;2022-09-19T14:08:29;97163.19;;;13.43;91.25
17054;BME280;8643;48.824;11.422;2022-09-19T14:11:29;97164.13;;;14.00;89.30
17054;BME280;8643;48.824;11.422;2022-09-19T14:13:58;97169.84;;;13.66;89.62
17054;BME280;8643;48.824;11.422;2022-09-19T14:16:32;97160.09;;;13.44;90.57